Winfred, SD

10:27 PM CDT on July 22, 2014 (GMT -0500)
Madison Municipal (KMDS) Elev 1716 ft | 44.01 °N, 97.08 °W | Change Station

Current weather conditions updated 17 minutes ago

Clear
Clear
64 °F
Feels Like 64 °F
N
6
Wind Variable Wind from NE

Tomorrow is forecast to be Warmer than today.

Today
High -- | Low -- °F
--% Chance of Precip.
Yesterday
High -- | Low -- °F
Precip. -- in
6:07 AM 9:03 PM
Waning Crescent, 13% visible
Pressure 30.24 in
Visibility 10.0 miles
Clouds Clear
Dew Point 63 °F
Humidity 94%
Rainfall 0.00 in
Snow Depth Not available.
UV 0 out of 12
Pollen 6.30 out of 12
Air Quality Not available.
Flu Activity Not available.
METAR KMDS 230310Z AUTO 04005KT 10SM CLR 18/17 A3024 RMK AO2

More Conditions Fewer Conditions

Pressure 30.24 in
Visibility 10.0 miles
Clouds Clear
Dew Point 63 °F
Humidity 94%
Rainfall 0.00 in
Snow Depth Not available.
UV 0 out of 12
Pollen 6.30 out of 12
Air Quality Not available.
Flu Activity Not available.
METAR KMDS 230310Z AUTO 04005KT 10SM CLR 18/17 A3024 RMK AO2

More Conditions Fewer Conditions

10-Day Weather Forecast

Almanac

Astronomy

Jul. 22, 2014 Rise Set
Actual Time 6:07 AM CDT 9:03 PM CDT
Civil Twilight 5:32 AM CDT 9:37 PM CDT
Nautical Twilight 4:49 AM CDT 10:21 PM CDT
Astronomical Twilight 3:57 AM CDT 11:12 PM CDT
Moon 2:42 AM CDT (7/22) 5:41 PM CDT (7/22)
Length of Visible Light 16h 04m
Length of Day
14h 56m
Tomorrow will be 1m 57s shorter.
Waning Crescent, 13% of the Moon is Illuminated
Today
Waning Crescent
Jul 26
New
Aug 3
First Quarter
Aug 10
Full
Aug 17
Last Quarter

Today's Extremes

State Highs State Lows

Community

WunderPhotos

Upload Photos

1,736,481 photos uploaded!

Nearby

Snow Depth

Station Depth Elevation
Blind Park 1 in 6890 ft

Earthquake Activity

City Distance Mag. Time & Date
No recent earthquake activity has been reported nearby.
Minimum magnitude displayed is 2.5.

Coastal Water Temperatures

Place Temperature
No Stations Reporting

Nearby Weather Stations

Station Location Temp. Dew Point Humidity Wind Precip. Elev Updated Type
Rural Canova, SD, Canova, SD 65.9 °F 61 °F 84% NE  at  0.0 mph 0.00 in / hr 1542 ft 10:27 PM CDT Rapid Fire

Show More Stations Show Fewer Stations